Time;durP1;ratioP1;P1;durP2;ratioP2;P2;SDS_P1;SDS_P2;PMS_P1;PMS_P2;Temp;Humidity;BMP_temperature;BMP_pressure;BME280_temperature;BME280_humidity;BME280_pressure;Samples;Min_cycle;Max_cycle;Signal;HPM_P1;HPM_P2
2022/01/17 00:00:06;;;;;;;16.93;5.95;;;;;;;5.15;76.50;100149.29;1853171;77;22585;-78
2022/01/17 00:02:35;;;;;;;24.30;7.42;;;;;;;5.16;76.42;100141.52;1851529;76;21038;-83
2022/01/17 00:05:02;;;;;;;16.07;7.58;;;;;;;5.18;76.40;100162.03;1827946;78;21578;-84
2022/01/17 00:07:31;;;;;;;20.72;8.03;;;;;;;5.19;76.26;100131.18;1828076;78;21096;-83
2022/01/17 00:09:58;;;;;;;18.75;7.28;;;;;;;5.20;76.04;100139.50;1828106;78;21056;-84
2022/01/17 00:12:25;;;;;;;16.70;7.53;;;;;;;5.20;75.93;100140.80;1828029;78;21739;-84
2022/01/17 00:14:54;;;;;;;19.20;6.47;;;;;;;5.21;75.76;100139.06;1827992;78;21556;-84
2022/01/17 00:19:53;;;;;;;20.20;8.98;;;;;;;5.19;75.54;100125.96;1797355;78;21518;-83
2022/01/17 00:22:19;;;;;;;15.35;6.00;;;;;;;5.20;75.51;100136.88;1827491;78;21084;-84
2022/01/17 00:24:45;;;;;;;14.28;5.10;;;;;;;5.21;75.37;100130.81;1828162;77;21755;-83
2022/01/17 00:27:12;;;;;;;22.02;7.15;;;;;;;5.22;75.28;100134.34;1828201;78;21519;-83
2022/01/17 00:29:39;;;;;;;16.25;6.33;;;;;;;5.24;75.18;100143.11;1828204;77;21100;-84
2022/01/17 00:32:06;;;;;;;17.40;6.22;;;;;;;5.17;75.12;100122.84;1828147;78;21075;-83
2022/01/17 00:34:33;;;;;;;14.85;5.42;;;;;;;5.27;74.93;100126.23;1810727;78;21060;-83
2022/01/17 00:37:00;;;;;;;15.93;4.97;;;;;;;5.29;74.78;100123.27;1810630;79;22483;-83
2022/01/17 00:39:28;;;;;;;15.20;5.90;;;;;;;5.30;74.65;100134.61;1782782;79;21772;-83
2022/01/17 00:41:55;;;;;;;13.03;5.05;;;;;;;5.31;74.54;100125.94;1810795;79;21575;-84
2022/01/17 00:44:23;;;;;;;20.15;5.08;;;;;;;5.33;74.40;100130.39;1810637;78;21132;-84
2022/01/17 00:46:52;;;;;;;14.07;4.72;;;;;;;5.32;74.26;100135.55;1810561;78;21064;-84
2022/01/17 00:49:22;;;;;;;17.23;4.17;;;;;;;5.33;74.21;100128.18;1810758;77;21828;-83
2022/01/17 00:51:48;;;;;;;14.35;4.45;;;;;;;5.34;74.12;100097.34;1810679;79;21077;-82
2022/01/17 00:54:17;;;;;;;18.55;6.45;;;;;;;5.33;73.95;100127.79;1783065;79;21575;-83
2022/01/17 00:56:43;;;;;;;18.42;4.75;;;;;;;5.33;73.81;100104.69;1810671;79;21150;-84
2022/01/17 00:59:10;;;;;;;18.92;4.17;;;;;;;5.32;73.74;100095.10;1810680;78;21567;-84
2022/01/17 01:01:37;;;;;;;19.73;4.90;;;;;;;5.32;73.68;100098.59;1810694;79;21740;-85
2022/01/17 01:04:04;;;;;;;19.67;5.33;;;;;;;5.34;73.58;100107.78;1811228;78;21045;-85
2022/01/17 01:06:31;;;;;;;16.12;4.55;;;;;;;5.33;73.55;100082.12;1852886;77;21031;-85
2022/01/17 01:08:58;;;;;;;20.95;5.35;;;;;;;5.31;73.46;100071.13;1852748;76;21016;-85
2022/01/17 01:11:25;;;;;;;20.97;5.78;;;;;;;5.31;73.40;100055.48;1852927;76;21007;-86
2022/01/17 01:13:55;;;;;;;18.55;4.05;;;;;;;5.29;73.33;100054.54;1852964;76;21718;-85
2022/01/17 01:19:08;;;;;;;16.73;4.92;;;;;;;5.30;73.35;100057.20;1853087;77;21050;-85
2022/01/17 01:29:44;;;;;;;20.35;4.15;;;;;;;5.31;73.24;100022.86;1853011;77;21561;-85
2022/01/17 01:32:09;;;;;;;18.00;3.58;;;;;;;5.30;73.24;100006.32;1852077;77;21537;-84
2022/01/17 01:34:47;;;;;;;16.73;3.80;;;;;;;5.29;73.24;99991.48;1851975;77;21023;-84
2022/01/17 01:37:06;;;;;;;15.58;4.45;;;;;;;5.28;73.23;99997.98;1851026;77;21090;-84
2022/01/17 01:39:34;;;;;;;15.95;3.40;;;;;;;5.26;73.27;99997.50;1853048;77;21944;-84
2022/01/17 01:42:02;;;;;;;20.97;5.35;;;;;;;5.26;73.24;99972.71;1852957;77;21501;-84
2022/01/17 01:44:30;;;;;;;20.08;6.45;;;;;;;5.29;73.30;99961.91;1852957;77;21035;-85
2022/01/17 01:46:57;;;;;;;18.60;4.37;;;;;;;5.30;73.27;99941.52;1852960;76;21023;-85
2022/01/17 01:49:24;;;;;;;20.17;3.75;;;;;;;5.30;73.16;99930.65;1852690;76;21098;-84
2022/01/17 01:51:53;;;;;;;19.02;4.33;;;;;;;5.30;73.15;99925.43;1852321;76;22491;-84
2022/01/17 01:54:20;;;;;;;25.80;5.45;;;;;;;5.31;73.15;99930.22;1852682;76;21066;-84
2022/01/17 01:56:48;;;;;;;17.27;4.45;;;;;;;5.30;73.12;99922.82;1852908;77;21027;-84
2022/01/17 01:59:16;;;;;;;15.08;3.83;;;;;;;5.27;73.10;99920.09;1852855;77;21529;-85
2022/01/17 02:01:43;;;;;;;16.75;3.90;;;;;;;5.26;73.14;99924.44;1853087;77;21050;-85
2022/01/17 02:04:10;;;;;;;17.57;3.65;;;;;;;5.26;73.13;99928.78;1852990;75;21900;-85
2022/01/17 02:06:37;;;;;;;17.42;3.33;;;;;;;5.27;73.12;99917.48;1852910;76;21617;-85
2022/01/17 02:09:04;;;;;;;16.37;3.92;;;;;;;5.28;73.19;99915.36;1853065;76;21391;-84
2022/01/17 02:11:36;;;;;;;14.03;3.80;;;;;;;5.22;73.18;99891.27;1852945;77;22080;-85
2022/01/17 02:14:02;;;;;;;18.17;4.40;;;;;;;5.31;73.15;99894.99;1852355;77;21058;-85
2022/01/17 02:16:29;;;;;;;15.38;4.10;;;;;;;5.32;73.18;99899.39;1853163;76;21866;-84
2022/01/17 02:18:59;;;;;;;17.40;4.17;;;;;;;5.32;73.17;99879.82;1853489;77;21030;-85
2022/01/17 02:23:58;;;;;;;21.50;4.95;;;;;;;5.32;73.17;99866.77;1853119;77;21043;-85
2022/01/17 02:26:28;;;;;;;14.38;3.67;;;;;;;5.30;73.20;99882.38;1853349;77;21070;-85
2022/01/17 02:28:56;;;;;;;21.17;4.08;;;;;;;5.29;73.21;99872.76;1853402;77;21774;-85
2022/01/17 02:31:23;;;;;;;25.30;4.60;;;;;;;5.29;73.24;99864.05;1853202;77;21074;-85
2022/01/17 02:33:51;;;;;;;14.80;4.20;;;;;;;5.31;73.26;99875.42;1853172;77;21469;-84
2022/01/17 02:36:20;;;;;;;21.52;4.12;;;;;;;5.33;73.29;99868.13;1819058;77;21003;-85
2022/01/17 02:38:47;;;;;;;20.90;3.72;;;;;;;5.34;73.28;99853.35;1853227;76;21532;-85
2022/01/17 02:41:14;;;;;;;17.62;3.77;;;;;;;5.34;73.29;99844.22;1853161;77;21708;-84
2022/01/17 02:43:41;;;;;;;14.47;3.55;;;;;;;5.33;73.32;99838.12;1853117;76;21062;-85
2022/01/17 02:48:39;;;;;;;19.17;3.60;;;;;;;5.34;73.35;99841.61;1853365;77;21012;-85
2022/01/17 02:51:05;;;;;;;13.68;2.90;;;;;;;5.32;73.39;99823.29;1836840;77;21033;-85
2022/01/17 02:53:32;;;;;;;12.18;2.85;;;;;;;5.33;73.45;99819.86;1853367;77;21944;-85
2022/01/17 02:56:04;;;;;;;11.80;3.55;;;;;;;5.36;73.50;99825.58;1853590;77;20960;-85
2022/01/17 02:58:34;;;;;;;16.30;3.30;;;;;;;5.36;73.57;99792.95;1853877;77;21109;-85
2022/01/17 03:01:08;;;;;;;20.60;5.30;;;;;;;5.36;73.68;99791.66;1853638;77;21607;-85
2022/01/17 03:03:34;;;;;;;19.30;3.87;;;;;;;5.33;73.84;99782.02;1853060;76;20949;-85
2022/01/17 03:06:01;;;;;;;15.32;4.03;;;;;;;5.34;73.91;99767.24;1845879;77;21772;-85
2022/01/17 03:08:31;;;;;;;15.80;4.62;;;;;;;5.34;74.03;99756.38;1845615;77;21023;-84
2022/01/17 03:10:57;;;;;;;13.53;4.35;;;;;;;5.34;74.13;99751.58;1845737;77;21175;-84
2022/01/17 03:13:31;;;;;;;15.65;4.85;;;;;;;5.30;74.24;99736.69;1845837;77;21061;-84
2022/01/17 03:15:58;;;;;;;17.75;5.08;;;;;;;5.28;74.36;99726.63;1845320;77;21018;-84
2022/01/17 03:18:28;;;;;;;12.15;4.25;;;;;;;5.27;74.51;99713.97;1845672;77;22643;-84
2022/01/17 03:20:55;;;;;;;13.83;3.30;;;;;;;5.26;74.59;99724.84;1845670;77;21026;-84
2022/01/17 03:23:24;;;;;;;12.85;3.72;;;;;;;5.25;74.69;99720.48;1844933;77;21449;-84
2022/01/17 03:25:56;;;;;;;14.87;4.28;;;;;;;5.26;74.74;99701.78;1845179;77;21328;-84
2022/01/17 03:28:23;;;;;;;18.52;3.45;;;;;;;5.24;74.85;99676.07;1817153;77;21583;-84
2022/01/17 03:30:53;;;;;;;12.28;2.77;;;;;;;5.23;74.96;99686.91;1845423;77;21736;-84
2022/01/17 03:33:18;;;;;;;13.05;2.87;;;;;;;5.22;75.00;99705.15;1845027;77;21085;-84
2022/01/17 03:35:47;;;;;;;10.13;2.70;;;;;;;5.22;75.07;99660.80;1845727;77;21038;-84
2022/01/17 03:38:16;;;;;;;8.70;3.10;;;;;;;5.22;75.22;99682.55;1845775;77;21101;-84
2022/01/17 03:40:47;;;;;;;10.48;2.92;;;;;;;5.24;75.35;99673.47;1845735;77;21018;-85
2022/01/17 03:43:14;;;;;;;11.88;4.30;;;;;;;5.23;75.44;99671.25;1816825;77;21555;-85
2022/01/17 03:45:45;;;;;;;13.08;2.60;;;;;;;5.21;75.81;99682.06;1845334;77;21536;-84
2022/01/17 03:48:14;;;;;;;9.23;1.98;;;;;;;5.20;75.75;99688.53;1845468;77;21085;-85
2022/01/17 03:50:41;;;;;;;11.18;5.22;;;;;;;5.19;75.86;99677.22;1845356;77;21655;-85
2022/01/17 03:53:08;;;;;;;14.25;5.25;;;;;;;5.21;75.98;99653.80;1845239;77;21025;-85
2022/01/17 03:55:35;;;;;;;8.53;2.27;;;;;;;5.22;75.93;99630.37;1845501;77;21753;-84
2022/01/17 03:58:04;;;;;;;8.48;3.37;;;;;;;5.26;75.94;99614.38;1845386;76;21595;-85
2022/01/17 04:00:34;;;;;;;10.03;2.45;;;;;;;5.29;75.98;99617.48;1845814;77;21050;-86
2022/01/17 04:03:03;;;;;;;11.50;3.00;;;;;;;5.32;76.27;99596.70;1845531;77;21042;-86
2022/01/17 04:05:30;;;;;;;9.95;2.77;;;;;;;5.32;76.27;99600.19;1845378;76;21042;-86
2022/01/17 04:07:57;;;;;;;8.13;2.50;;;;;;;5.33;76.37;99590.23;1845919;77;21968;-79
2022/01/17 04:10:24;;;;;;;12.35;3.12;;;;;;;5.33;76.50;99587.63;1845881;77;20959;-87
2022/01/17 04:13:01;;;;;;;10.53;2.35;;;;;;;5.33;76.68;99586.31;1816879;77;21057;-87
2022/01/17 04:15:23;;;;;;;10.35;3.22;;;;;;;5.30;76.73;99577.09;1844081;77;21493;-86
2022/01/17 04:17:50;;;;;;;9.88;2.12;;;;;;;5.30;76.87;99576.22;1845965;77;21041;-86
2022/01/17 04:20:25;;;;;;;12.98;2.50;;;;;;;5.29;76.97;99564.00;1845759;77;21755;-87
2022/01/17 04:22:52;;;;;;;8.68;3.10;;;;;;;5.27;77.12;99549.59;1844075;77;21052;-85
2022/01/17 04:25:17;;;;;;;8.08;2.65;;;;;;;5.25;77.24;99544.77;1845420;77;21041;-85
2022/01/17 04:27:44;;;;;;;8.65;2.00;;;;;;;5.23;77.38;99507.31;1845718;77;21076;-85
2022/01/17 04:30:13;;;;;;;10.13;2.17;;;;;;;5.22;77.37;99527.31;1845499;77;20999;-85
2022/01/17 04:32:42;;;;;;;10.00;3.08;;;;;;;5.21;77.39;99519.02;1845602;77;21739;-84
2022/01/17 04:35:11;;;;;;;10.03;2.20;;;;;;;5.22;77.46;99524.70;1845541;76;20994;-85
2022/01/17 04:37:42;;;;;;;;;;;;;;;5.24;77.52;99524.75;1819114;76;21552;-85
2022/01/17 04:40:11;;;;;;;5.85;1.70;;;;;;;5.25;77.52;99518.67;1845854;77;20217;-85
2022/01/17 04:42:44;;;;;;;4.50;1.35;;;;;;;5.28;77.50;99519.20;1845781;77;21037;-85
2022/01/17 04:45:09;;;;;;;6.25;1.95;;;;;;;5.30;77.53;99518.39;1816426;77;21555;-85
2022/01/17 04:47:39;;;;;;;7.40;1.80;;;;;;;5.32;77.57;99524.95;1845744;77;21611;-85
2022/01/17 04:50:09;;;;;;;5.72;1.52;;;;;;;5.34;77.55;99499.34;1845709;77;21057;-86
2022/01/17 04:52:36;;;;;;;11.97;1.80;;;;;;;5.35;77.59;99505.44;1844244;77;20980;-79
2022/01/17 04:55:09;;;;;;;7.42;1.60;;;;;;;5.38;77.61;99504.23;1845101;77;21508;-80
2022/01/17 04:57:37;;;;;;;4.75;1.40;;;;;;;5.40;77.58;99489.06;1844541;77;21757;-78
2022/01/17 05:00:06;;;;;;;4.50;1.30;;;;;;;5.42;78.44;99473.05;1844778;77;21094;-79
2022/01/17 05:02:35;;;;;;;6.17;2.70;;;;;;;5.44;77.75;99479.59;1844475;77;21532;-79
2022/01/17 05:05:04;;;;;;;3.70;1.20;;;;;;;5.47;77.56;99461.41;1837274;75;21072;-79
2022/01/17 05:07:33;;;;;;;4.60;1.55;;;;;;;5.48;77.49;99450.13;1827517;78;21068;-79
2022/01/17 05:09:59;;;;;;;4.67;1.20;;;;;;;5.50;77.42;99436.70;1827385;77;22487;-79
2022/01/17 05:12:26;;;;;;;3.27;1.45;;;;;;;5.53;77.42;99451.11;1827268;77;21021;-78
2022/01/17 05:14:54;;;;;;;4.55;1.40;;;;;;;5.53;77.39;99432.84;1827579;77;21602;-78
2022/01/17 05:19:58;;;;;;;5.10;1.45;;;;;;;5.51;77.38;99408.86;1828013;78;21092;-82
2022/01/17 05:22:28;;;;;;;3.90;1.40;;;;;;;5.53;77.42;99387.59;1828163;77;21784;-80
2022/01/17 05:24:55;;;;;;;4.87;1.50;;;;;;;5.54;77.36;99385.45;1823591;78;21077;-79
2022/01/17 05:27:22;;;;;;;4.30;1.40;;;;;;;5.56;77.37;99393.77;1822160;77;21048;-86
2022/01/17 05:29:48;;;;;;;7.05;1.95;;;;;;;5.62;77.37;99391.29;1822278;78;21598;-83
2022/01/17 05:32:15;;;;;;;6.80;1.75;;;;;;;5.64;77.37;99392.20;1821542;77;21020;-83
2022/01/17 05:34:42;;;;;;;4.53;1.57;;;;;;;5.68;77.38;99406.64;1821658;78;21797;-82
2022/01/17 05:37:10;;;;;;;6.90;1.40;;;;;;;5.71;77.45;99432.40;1821191;78;21060;-78
2022/01/17 05:39:36;;;;;;;5.72;1.47;;;;;;;5.73;84.41;99422.88;1821429;77;21052;-75
2022/01/17 05:42:04;;;;;;;6.25;1.35;;;;;;;5.75;81.28;99432.92;1821294;78;21134;-79
2022/01/17 05:44:31;;;;;;;9.40;1.70;;;;;;;5.79;78.31;99431.27;1821277;77;21100;-79
2022/01/17 05:46:58;;;;;;;5.20;0.70;;;;;;;5.82;77.79;99579.77;1821614;77;21732;-75
2022/01/17 05:49:24;;;;;;;1.52;0.70;;;;;;;3.24;85.97;99635.26;1820874;78;21053;-75
2022/01/17 05:51:51;;;;;;;1.25;0.45;;;;;;;1.29;91.44;99702.22;1820529;77;21064;-76
2022/01/17 05:54:18;;;;;;;1.55;0.40;;;;;;;0.49;94.91;99650.63;1821289;78;21514;-76
2022/01/17 05:56:44;;;;;;;0.50;0.50;;;;;;;0.10;97.24;99669.89;1821265;77;21060;-77
2022/01/17 05:59:11;;;;;;;0.88;0.65;;;;;;;-0.33;99.12;99663.86;1821331;78;21741;-76
2022/01/17 06:01:41;;;;;;;0.55;0.50;;;;;;;-0.29;100.00;99710.16;1821401;77;21563;-77
2022/01/17 06:04:06;;;;;;;4.40;0.60;;;;;;;-0.35;100.00;99699.52;1821289;78;21101;-76
2022/01/17 06:06:33;;;;;;;5.75;0.80;;;;;;;-0.39;100.00;99710.09;1821335;77;21009;-77
2022/01/17 06:09:03;;;;;;;2.08;0.72;;;;;;;-0.43;100.00;99700.00;1821697;77;21067;-76
2022/01/17 06:11:28;;;;;;;3.40;0.80;;;;;;;-0.48;100.00;99696.28;1820578;77;21821;-77
2022/01/17 06:13:57;;;;;;;3.60;0.90;;;;;;;-0.48;100.00;99676.02;1821219;77;21088;-80
2022/01/17 06:16:26;;;;;;;1.75;0.82;;;;;;;-0.50;100.00;99659.13;1817288;78;21072;-80
2022/01/17 06:18:59;;;;;;;1.20;0.75;;;;;;;-0.51;100.00;99678.02;1821560;77;21064;-80
2022/01/17 06:21:24;;;;;;;2.20;0.95;;;;;;;-0.51;100.00;99680.59;1821543;78;21056;-80
2022/01/17 06:23:52;;;;;;;2.37;1.17;;;;;;;-0.56;100.00;99663.08;1821913;78;21724;-81
2022/01/17 06:26:20;;;;;;;4.83;1.17;;;;;;;-0.49;100.00;99667.38;1821878;78;21382;-79
2022/01/17 06:28:47;;;;;;;3.75;1.17;;;;;;;-0.49;100.00;99658.71;1822215;77;21088;-81
2022/01/17 06:31:13;;;;;;;2.83;1.20;;;;;;;-0.49;100.00;99622.14;1822323;78;20990;-81
2022/01/17 06:33:44;;;;;;;4.00;1.35;;;;;;;-0.49;100.00;99610.52;1822332;77;21029;-80
2022/01/17 06:36:09;;;;;;;9.58;1.45;;;;;;;-0.49;100.00;99618.64;1821675;78;21780;-80
2022/01/17 06:38:35;;;;;;;4.87;1.30;;;;;;;-0.49;100.00;99642.83;1821943;77;21069;-81
2022/01/17 06:41:02;;;;;;;6.08;1.20;;;;;;;-0.47;100.00;99655.42;1822159;78;21116;-81
2022/01/17 06:43:29;;;;;;;6.53;1.60;;;;;;;-0.47;100.00;99671.31;1822063;77;21080;-81
2022/01/17 06:45:56;;;;;;;5.80;1.92;;;;;;;-0.46;100.00;99676.98;1822214;77;21621;-80
2022/01/17 06:48:23;;;;;;;6.45;2.15;;;;;;;-0.45;100.00;99681.32;1822267;78;22476;-81
2022/01/17 06:50:53;;;;;;;8.03;2.30;;;;;;;-0.43;100.00;99674.15;1822023;78;21318;-81
2022/01/17 06:53:18;;;;;;;4.92;2.08;;;;;;;-0.50;100.00;99687.97;1821122;77;21104;-81
2022/01/17 06:55:44;;;;;;;6.22;2.08;;;;;;;-0.41;100.00;99710.02;1822193;78;21088;-81
2022/01/17 06:58:11;;;;;;;8.25;1.82;;;;;;;-0.38;100.00;99720.03;1822116;78;21060;-82
2022/01/17 07:00:40;;;;;;;11.85;2.60;;;;;;;-0.38;100.00;99735.13;1821387;77;21181;-82
2022/01/17 07:03:06;;;;;;;7.03;1.72;;;;;;;-0.36;100.00;99727.45;1821870;77;21049;-82
2022/01/17 07:05:33;;;;;;;4.28;1.62;;;;;;;-0.36;100.00;99751.61;1830172;77;21475;-82
2022/01/17 07:08:00;;;;;;;7.15;2.12;;;;;;;-0.34;100.00;99790.06;1846746;77;21510;-83
2022/01/17 07:10:28;;;;;;;7.37;2.17;;;;;;;-0.32;100.00;99791.06;1846931;77;21048;-81
2022/01/17 07:12:56;;;;;;;7.65;2.00;;;;;;;-0.30;100.00;99811.80;1846770;77;21789;-83
2022/01/17 07:15:23;;;;;;;6.22;2.00;;;;;;;-0.28;100.00;99794.67;1846583;77;21048;-82
2022/01/17 07:17:49;;;;;;;6.42;1.85;;;;;;;-0.27;100.00;99769.31;1846837;77;21144;-82
2022/01/17 07:20:16;;;;;;;6.17;2.05;;;;;;;-0.26;100.00;99743.53;1846835;77;21023;-83
2022/01/17 07:22:43;;;;;;;6.05;2.20;;;;;;;-0.25;100.00;99736.66;1846858;77;21040;-83
2022/01/17 07:25:10;;;;;;;8.15;2.30;;;;;;;-0.25;100.00;99705.63;1846777;77;22532;-83
2022/01/17 07:27:40;;;;;;;11.57;3.02;;;;;;;-0.24;100.00;99710.87;1846726;77;21059;-82
2022/01/17 07:30:09;;;;;;;6.65;2.42;;;;;;;-0.24;100.00;99735.45;1846799;77;21843;-83
2022/01/17 07:32:36;;;;;;;9.55;2.75;;;;;;;-0.29;100.00;99745.07;1847040;77;21157;-83
2022/01/17 07:35:06;;;;;;;6.72;2.33;;;;;;;-0.23;100.00;99775.13;1846516;77;21016;-83
2022/01/17 07:37:33;;;;;;;8.10;2.47;;;;;;;-0.23;100.00;99773.83;1775224;80;21658;-84
2022/01/17 07:40:00;;;;;;;14.03;2.90;;;;;;;-0.24;100.00;99785.00;1806432;79;21070;-83
2022/01/17 07:42:30;;;;;;;10.08;2.52;;;;;;;-0.24;100.00;99814.74;1846532;77;21103;-83
2022/01/17 07:44:57;;;;;;;10.50;2.47;;;;;;;-0.23;100.00;99832.02;1845727;77;21137;-82
2022/01/17 07:47:40;;;;;;;10.05;2.90;;;;;;;-0.24;100.00;99824.67;1846360;77;21130;-83
2022/01/17 07:49:53;;;;;;;7.40;2.75;;;;;;;-0.24;100.00;99836.31;1809729;77;21948;-83
2022/01/17 07:52:20;;;;;;;7.67;2.55;;;;;;;-0.26;100.00;99843.09;1846250;77;21063;-82
2022/01/17 07:54:47;;;;;;;9.00;2.62;;;;;;;-0.27;100.00;99856.83;1846157;77;21455;-83
2022/01/17 07:57:14;;;;;;;8.00;2.30;;;;;;;-0.29;100.00;99870.48;1846021;77;21585;-80
2022/01/17 07:59:41;;;;;;;8.70;2.20;;;;;;;-0.32;100.00;99857.00;1846077;77;21625;-81
2022/01/17 08:02:08;;;;;;;8.03;2.22;;;;;;;-0.31;100.00;99883.33;1845912;77;21721;-80
2022/01/17 08:04:34;;;;;;;8.85;3.00;;;;;;;-0.37;100.00;99871.78;1845993;77;21043;-81
2022/01/17 08:07:01;;;;;;;8.60;2.58;;;;;;;-0.26;100.00;99897.41;1845698;77;21582;-81
2022/01/17 08:09:30;;;;;;;5.87;2.40;;;;;;;-0.24;100.00;99893.20;1812111;77;21589;-81
2022/01/17 08:11:58;;;;;;;9.28;2.58;;;;;;;-0.24;100.00;99927.23;1845821;77;21079;-81
2022/01/17 08:14:24;;;;;;;8.90;2.58;;;;;;;-0.30;100.00;99945.89;1845434;77;21812;-80
2022/01/17 08:16:52;;;;;;;7.85;2.80;;;;;;;-0.33;100.00;99950.00;1845789;77;21051;-81
2022/01/17 08:19:19;;;;;;;12.47;2.83;;;;;;;-0.35;100.00;99955.50;1845843;77;22216;-80
2022/01/17 08:21:51;;;;;;;6.45;2.27;;;;;;;-0.40;100.00;99972.91;1846031;77;21052;-80
2022/01/17 08:24:20;;;;;;;7.80;2.40;;;;;;;-0.41;100.00;99983.19;1807732;77;21605;-80
2022/01/17 08:26:50;;;;;;;6.37;2.20;;;;;;;-0.42;100.00;99995.20;1845500;77;21031;-81
2022/01/17 08:29:19;;;;;;;6.90;2.67;;;;;;;-0.42;100.00;99984.86;1845797;77;22279;-80
2022/01/17 08:31:47;;;;;;;6.55;2.05;;;;;;;-0.42;100.00;100007.25;1846117;77;21118;-81
2022/01/17 08:34:14;;;;;;;7.47;2.52;;;;;;;-0.39;100.00;99991.92;1845984;77;21055;-81
2022/01/17 08:36:41;;;;;;;8.65;2.75;;;;;;;-0.36;100.00;99996.36;1845886;77;21047;-81
2022/01/17 08:39:07;;;;;;;8.88;2.55;;;;;;;-0.35;100.00;99986.11;1845724;77;21775;-81
2022/01/17 08:41:34;;;;;;;5.37;2.20;;;;;;;-0.33;100.00;99963.81;1845740;77;21040;-80
2022/01/17 08:44:01;;;;;;;7.90;2.30;;;;;;;-0.32;100.00;99977.63;1806001;77;21099;-80
2022/01/17 08:46:27;;;;;;;8.13;2.52;;;;;;;-0.32;100.00;99981.13;1846014;77;21466;-80
2022/01/17 08:48:54;;;;;;;5.05;1.87;;;;;;;-0.29;100.00;99980.39;1845844;77;21048;-80
2022/01/17 08:51:22;;;;;;;11.73;2.67;;;;;;;-0.28;100.00;99990.83;1811989;77;21644;-80
2022/01/17 08:53:49;;;;;;;7.95;2.40;;;;;;;-0.27;100.00;99980.95;1845890;77;21039;-80
2022/01/17 08:56:18;;;;;;;6.58;2.62;;;;;;;-0.24;100.00;100001.83;1845971;77;21569;-79
2022/01/17 08:58:44;;;;;;;9.10;2.52;;;;;;;-0.18;100.00;100002.57;1845797;77;21049;-78
2022/01/17 09:01:13;;;;;;;11.05;3.37;;;;;;;-0.16;100.00;100002.66;1845803;77;21044;-80
2022/01/17 09:03:40;;;;;;;6.55;2.20;;;;;;;-0.11;100.00;100027.06;1845958;77;21499;-79
2022/01/17 09:06:07;;;;;;;6.67;2.30;;;;;;;-0.06;100.00;100031.69;1845664;77;21637;-81
2022/01/17 09:08:34;;;;;;;7.65;2.92;;;;;;;0.01;100.00;100024.30;1845430;77;21835;-80
2022/01/17 09:11:01;;;;;;;7.37;2.77;;;;;;;0.02;100.00;100039.91;1845633;77;21816;-80
2022/01/17 09:13:30;;;;;;;6.08;3.00;;;;;;;0.05;100.00;100052.11;1845869;77;22244;-80
2022/01/17 09:15:56;;;;;;;9.38;2.33;;;;;;;0.08;100.00;100040.65;1845601;76;22497;-80
2022/01/17 09:18:24;;;;;;;8.70;2.10;;;;;;;0.10;100.00;100050.68;1845605;77;21499;-80
2022/01/17 09:20:51;;;;;;;6.42;2.02;;;;;;;0.11;100.00;100052.44;1845641;77;21055;-80
2022/01/17 09:23:18;;;;;;;6.97;2.40;;;;;;;0.15;100.00;100051.80;1845531;77;21087;-80
2022/01/17 09:25:45;;;;;;;6.78;1.98;;;;;;;0.17;100.00;100067.92;1845489;77;21102;-79
2022/01/17 09:28:11;;;;;;;4.70;2.02;;;;;;;0.25;100.00;100066.16;1845550;77;21685;-80
2022/01/17 09:30:38;;;;;;;10.80;2.50;;;;;;;0.26;100.00;100075.70;1845547;77;21122;-80
2022/01/17 09:33:06;;;;;;;5.33;2.20;;;;;;;0.30;100.00;100078.94;1845717;77;21063;-79
2022/01/17 09:35:33;;;;;;;5.78;2.35;;;;;;;0.34;100.00;100127.09;1845830;77;21039;-80
2022/01/17 09:37:59;;;;;;;7.22;1.70;;;;;;;0.40;100.00;100100.66;1813115;77;21660;-79
2022/01/17 09:40:29;;;;;;;5.58;1.60;;;;;;;0.43;100.00;100099.92;1846051;77;23021;-79
2022/01/17 09:42:58;;;;;;;7.67;1.62;;;;;;;0.51;100.00;100097.37;1845509;77;21412;-79
2022/01/17 09:45:23;;;;;;;4.60;1.62;;;;;;;0.60;100.00;100108.61;1845301;77;21055;-78
2022/01/17 09:47:50;;;;;;;7.05;1.85;;;;;;;0.67;100.00;100166.42;1845938;77;21045;-78
2022/01/17 09:50:20;;;;;;;5.10;1.75;;;;;;;0.73;100.00;100149.53;1845637;77;21071;-79
2022/01/17 09:52:49;;;;;;;7.00;1.85;;;;;;;0.83;100.00;100125.00;1845746;77;21919;-79
2022/01/17 09:55:24;;;;;;;11.12;2.02;;;;;;;0.85;100.00;100145.41;1845990;77;21052;-79
2022/01/17 09:58:01;;;;;;;3.75;1.80;;;;;;;1.01;100.00;100168.25;1844024;77;20992;-80
2022/01/17 10:00:32;;;;;;;7.35;1.87;;;;;;;1.12;100.00;100177.08;1845432;77;21099;-78
2022/01/17 10:03:02;;;;;;;3.40;1.40;;;;;;;1.18;100.00;100183.41;1846354;77;21554;-77
2022/01/17 10:05:28;;;;;;;3.80;1.50;;;;;;;1.22;100.00;100182.75;1845731;77;21732;-76
2022/01/17 10:08:08;;;;;;;3.47;1.62;;;;;;;1.13;100.00;100197.02;1845461;77;21045;-75
2022/01/17 10:10:56;;;;;;;6.95;2.00;;;;;;;1.18;100.00;100169.16;1845619;77;21048;-77
2022/01/17 10:13:23;;;;;;;;;;;;;;;1.18;100.00;100182.99;1847532;77;21079;-77
2022/01/17 10:16:13;;;;;;;5.92;2.08;;;;;;;1.23;100.00;100182.84;1845748;76;20342;-76
2022/01/17 10:18:44;;;;;;;4.47;1.60;;;;;;;1.25;100.00;100194.19;1845722;77;21628;-77
2022/01/17 10:21:20;;;;;;;4.67;1.52;;;;;;;1.26;100.00;100238.76;1846322;77;21055;-77
2022/01/17 10:26:57;;;;;;;6.53;2.17;;;;;;;1.29;100.00;100221.16;1716018;82;21066;-76
2022/01/17 10:35:15;;;;;;;3.25;1.50;;;;;;;1.34;100.00;100267.28;1743169;81;21110;-76
2022/01/17 10:37:42;;;;;;;7.80;1.72;;;;;;;1.42;100.00;100271.58;1743424;82;21182;-77
2022/01/17 10:40:15;;;;;;;3.60;1.10;;;;;;;1.47;100.00;100312.04;1718763;81;21073;-77
2022/01/17 10:42:48;;;;;;;10.82;1.90;;;;;;;1.49;100.00;100282.77;1743543;81;21161;-76
2022/01/17 10:45:21;;;;;;;8.15;1.65;;;;;;;1.57;100.00;100288.78;1743805;82;21768;-78
2022/01/17 10:47:51;;;;;;;5.47;1.25;;;;;;;1.62;100.00;100305.49;1743272;81;21105;-78
2022/01/17 10:50:27;;;;;;;3.77;1.30;;;;;;;1.61;100.00;100317.97;1743460;81;21097;-78
2022/01/17 10:53:02;;;;;;;4.58;1.50;;;;;;;1.59;100.00;100325.66;1743268;80;21156;-77
2022/01/17 10:55:41;;;;;;;6.08;1.72;;;;;;;1.61;100.00;100311.06;1743532;80;21077;-77
2022/01/17 10:58:13;;;;;;;7.17;2.10;;;;;;;1.62;100.00;100315.45;1743533;82;21985;-78
2022/01/17 11:00:47;;;;;;;5.00;1.85;;;;;;;1.72;100.00;100314.23;1743554;80;21217;-77
2022/01/17 11:03:16;;;;;;;3.33;1.80;;;;;;;1.78;100.00;100323.64;1776738;77;21047;-78
2022/01/17 11:05:47;;;;;;;4.90;1.52;;;;;;;1.82;100.00;100360.64;1845934;77;21048;-78
2022/01/17 11:08:17;;;;;;;4.10;1.85;;;;;;;1.98;100.00;100375.73;1854015;77;21063;-78
2022/01/17 11:10:46;;;;;;;5.42;1.55;;;;;;;2.09;100.00;100350.81;1855860;77;21810;-78
2022/01/17 11:13:16;;;;;;;5.33;1.45;;;;;;;2.17;100.00;100369.39;1855159;77;21629;-77
2022/01/17 11:15:46;;;;;;;5.58;1.98;;;;;;;2.24;100.00;100344.23;1855946;77;21601;-78
2022/01/17 11:18:20;;;;;;;5.17;1.62;;;;;;;2.26;100.00;100376.37;1854994;77;21047;-76
2022/01/17 11:20:49;;;;;;;6.67;1.60;;;;;;;2.27;100.00;100385.95;1855870;76;21065;-77
2022/01/17 11:23:15;;;;;;;3.87;1.70;;;;;;;2.29;100.00;100386.01;1854507;77;21750;-77
2022/01/17 11:25:45;;;;;;;4.28;1.47;;;;;;;2.31;100.00;100389.61;1825906;77;21039;-76
2022/01/17 11:28:22;;;;;;;6.67;1.75;;;;;;;2.29;100.00;100396.02;1826489;77;21052;-77
2022/01/17 11:30:46;;;;;;;4.55;1.72;;;;;;;2.27;100.00;100414.52;1853828;77;21707;-76
2022/01/17 11:33:13;;;;;;;3.52;1.62;;;;;;;2.24;100.00;100422.14;1855502;77;21063;-77
2022/01/17 11:35:42;;;;;;;6.72;1.60;;;;;;;2.23;100.00;100407.36;1826823;77;21730;-77
2022/01/17 11:38:19;;;;;;;5.35;1.82;;;;;;;2.24;100.00;100444.63;1854022;77;21625;-77
2022/01/17 11:40:44;;;;;;;4.45;1.30;;;;;;;2.23;100.00;100456.70;1826744;77;21059;-77
2022/01/17 11:43:33;;;;;;;4.72;1.32;;;;;;;2.24;100.00;100432.94;1855092;76;21052;-76
2022/01/17 11:45:58;;;;;;;2.75;1.47;;;;;;;2.25;100.00;100478.48;1826130;77;21056;-76
2022/01/17 11:48:29;;;;;;;4.80;1.82;;;;;;;2.24;100.00;100470.59;1826802;77;22594;-77
2022/01/17 11:50:59;;;;;;;8.08;1.75;;;;;;;2.25;100.00;100473.28;1855296;76;21680;-76
2022/01/17 11:53:32;;;;;;;5.10;1.30;;;;;;;2.27;100.00;100467.77;1855523;76;21549;-76
2022/01/17 11:55:59;;;;;;;3.55;1.35;;;;;;;2.27;100.00;100459.97;1852553;77;21055;-76
2022/01/17 11:58:31;;;;;;;5.60;1.50;;;;;;;2.27;100.00;100487.24;1826749;77;21075;-76
2022/01/17 12:01:06;;;;;;;4.67;1.70;;;;;;;2.28;100.00;100503.30;1855576;77;22435;-76
2022/01/17 12:03:55;;;;;;;7.83;1.98;;;;;;;2.31;100.00;100511.27;1855661;76;21058;-76